createdAt,value
2022-09-16T02:53:29.328Z,1.80
2022-09-16T02:55:59.671Z,1.40
2022-09-16T02:58:26.998Z,1.63
2022-09-16T03:00:55.228Z,1.50
2022-09-16T03:03:42.131Z,1.40
2022-09-16T03:06:31.304Z,1.63
2022-09-16T03:09:05.746Z,1.27
2022-09-16T03:11:50.136Z,2.33
2022-09-16T03:14:35.958Z,1.50
2022-09-16T03:17:09.146Z,1.67
2022-09-16T03:19:40.988Z,1.97
2022-09-16T03:55:57.740Z,1.40
2022-09-16T03:58:24.928Z,1.37
2022-09-16T04:00:52.340Z,1.50
2022-09-16T04:03:19.535Z,1.80
2022-09-16T04:05:46.870Z,1.77
2022-09-16T04:08:19.477Z,1.50
2022-09-16T04:10:53.958Z,1.93
2022-09-16T04:13:22.847Z,1.70
2022-09-16T04:15:50.280Z,1.60
2022-09-16T04:18:36.089Z,1.80
2022-09-16T04:21:08.772Z,2.30
2022-09-16T04:23:35.996Z,1.63
2022-09-16T04:26:03.704Z,1.70
2022-09-16T04:28:33.222Z,1.43
2022-09-16T04:31:01.306Z,1.73
2022-09-16T04:33:28.617Z,1.37
2022-09-16T04:36:01.926Z,1.73
2022-09-16T04:38:29.155Z,2.50
2022-09-16T04:41:00.159Z,1.17
2022-09-16T04:43:27.562Z,1.43
2022-09-16T04:45:56.451Z,2.03
2022-09-16T04:48:23.699Z,1.57
2022-09-16T04:50:51.015Z,1.50
2022-09-16T04:53:18.360Z,1.70
2022-09-16T04:55:45.690Z,2.00
2022-09-16T04:58:13.189Z,2.20
2022-09-16T05:00:40.645Z,2.97
2022-09-16T05:03:09.794Z,1.53
2022-09-16T05:05:42.301Z,2.20
2022-09-16T05:08:09.631Z,1.70
2022-09-16T05:10:36.807Z,1.37
2022-09-16T05:13:04.066Z,1.30
2022-09-16T05:15:31.280Z,2.00
2022-09-16T05:17:58.532Z,1.83
2022-09-16T05:20:27.147Z,1.27
2022-09-16T05:22:54.455Z,1.13
2022-09-16T05:25:21.640Z,1.43
2022-09-16T05:27:48.882Z,2.27
2022-09-16T05:30:16.068Z,1.93
2022-09-16T05:32:43.275Z,1.50
2022-09-16T05:35:10.503Z,1.30
2022-09-16T05:37:39.042Z,1.43
2022-09-16T05:40:07.032Z,1.27
2022-09-16T05:42:34.294Z,1.43
2022-09-16T05:45:01.503Z,1.50
2022-09-16T05:47:28.847Z,1.37
2022-09-16T05:49:56.042Z,1.20
2022-09-16T05:52:23.287Z,1.40
2022-09-16T05:54:52.026Z,1.37
2022-09-16T05:57:19.364Z,1.80
2022-09-16T05:59:46.958Z,1.47
2022-09-16T06:02:14.209Z,1.67
2022-09-16T06:04:41.473Z,1.80
2022-09-16T06:07:08.727Z,1.90
2022-09-16T06:09:36.000Z,1.93
2022-09-16T06:12:05.398Z,1.77
2022-09-16T06:14:32.642Z,1.93
2022-09-16T06:16:59.851Z,1.83
2022-09-16T06:19:27.127Z,1.53
2022-09-16T06:21:54.402Z,1.83
2022-09-16T06:24:21.693Z,1.50
2022-09-16T06:26:49.553Z,2.23
2022-09-16T06:29:18.634Z,1.43
2022-09-16T06:31:45.959Z,3.00
2022-09-16T06:34:15.012Z,1.50
2022-09-16T06:36:44.995Z,1.60
2022-09-16T06:39:12.972Z,1.40
2022-09-16T06:41:40.198Z,1.47
2022-09-16T06:44:07.676Z,1.70
2022-09-16T06:46:36.235Z,2.40
2022-09-16T06:49:06.475Z,1.70
2022-09-16T06:51:34.872Z,1.40
2022-09-16T06:54:02.744Z,1.47
2022-09-16T06:56:30.031Z,1.77
2022-09-16T06:58:57.394Z,1.57
2022-09-16T07:01:25.372Z,1.97
2022-09-16T07:03:54.255Z,1.87
2022-09-16T07:06:33.387Z,1.90
2022-09-16T07:09:12.263Z,1.60
2022-09-16T07:11:39.604Z,1.60
2022-09-16T07:14:06.970Z,1.40
2022-09-16T07:16:34.327Z,1.40
2022-09-16T07:19:03.140Z,1.43
2022-09-16T07:21:30.731Z,1.23
2022-09-16T07:23:58.284Z,1.77
2022-09-16T07:26:26.889Z,2.03
2022-09-16T07:28:54.726Z,1.80
2022-09-16T07:31:22.800Z,1.67
2022-09-16T07:33:50.561Z,2.03
2022-09-16T07:36:19.889Z,1.97
2022-09-16T07:38:47.670Z,1.70
2022-09-16T07:41:15.908Z,2.00
2022-09-16T07:43:43.851Z,1.77
2022-09-16T07:46:11.923Z,2.13
2022-09-16T07:48:39.630Z,2.00
2022-09-16T07:51:08.264Z,1.80
2022-09-16T07:53:37.073Z,2.63
2022-09-16T07:56:05.114Z,2.30
2022-09-16T07:58:32.398Z,2.33
2022-09-16T08:01:04.269Z,1.53
2022-09-16T08:03:32.339Z,2.00
2022-09-16T08:06:00.672Z,2.07
2022-09-16T08:08:27.885Z,2.00
2022-09-16T08:10:56.916Z,1.37
2022-09-16T08:13:24.583Z,1.53
2022-09-16T08:15:51.807Z,2.00
2022-09-16T08:18:19.292Z,1.63
2022-09-16T08:20:46.532Z,1.57
2022-09-16T08:23:35.952Z,1.60
2022-09-16T08:26:05.447Z,1.50
2022-09-16T08:28:45.031Z,1.73
2022-09-16T08:31:18.881Z,1.57
2022-09-16T08:33:46.186Z,2.37
2022-09-16T08:36:14.457Z,1.67
2022-09-16T08:38:41.987Z,1.93
2022-09-16T08:41:19.329Z,1.60
2022-09-16T08:43:52.081Z,1.50
2022-09-16T08:46:23.579Z,1.20
2022-09-16T08:48:55.173Z,1.47
2022-09-16T08:51:23.539Z,1.70
2022-09-16T08:53:52.843Z,1.60
2022-09-16T08:56:22.948Z,1.70
2022-09-16T08:58:51.964Z,1.70
2022-09-16T09:01:21.277Z,2.33
2022-09-16T09:03:48.893Z,2.73
2022-09-16T09:06:24.317Z,2.00
2022-09-16T09:08:56.459Z,2.17
2022-09-16T09:11:29.493Z,1.87
2022-09-16T09:14:02.722Z,2.23
2022-09-16T09:16:35.565Z,2.57
2022-09-16T09:19:08.142Z,1.47
2022-09-16T09:21:39.924Z,1.67
2022-09-16T09:24:25.113Z,1.50
2022-09-16T09:26:59.006Z,1.50
2022-09-16T09:29:38.435Z,1.57
2022-09-16T09:32:12.966Z,1.60
2022-09-16T09:34:48.195Z,2.00
2022-09-16T09:37:22.329Z,1.70
2022-09-16T09:39:56.167Z,2.20
2022-09-16T09:42:27.394Z,1.70
2022-09-16T09:45:01.448Z,1.63
2022-09-16T09:47:32.996Z,1.50
2022-09-16T09:50:04.227Z,1.53
2022-09-16T09:52:36.003Z,1.57
2022-09-16T09:55:15.539Z,1.47
2022-09-16T09:58:03.181Z,1.40
2022-09-16T10:00:49.749Z,1.10
2022-09-16T10:03:19.198Z,1.30
2022-09-16T10:05:47.199Z,1.60
2022-09-16T10:08:17.787Z,1.43
2022-09-16T10:10:47.997Z,1.30
2022-09-16T10:13:15.311Z,1.50
2022-09-16T10:15:42.747Z,1.33
2022-09-16T10:18:12.606Z,1.37
2022-09-16T10:20:43.086Z,1.40
2022-09-16T10:23:11.719Z,1.10
2022-09-16T10:25:39.401Z,1.33
2022-09-16T10:28:17.925Z,1.47
2022-09-16T10:33:18.247Z,1.50
2022-09-16T10:35:53.654Z,1.40
2022-09-16T10:38:22.424Z,1.20
2022-09-16T10:40:53.494Z,1.30
2022-09-16T10:43:20.907Z,1.50
2022-09-16T10:45:55.505Z,1.00
2022-09-16T10:48:30.744Z,1.47
2022-09-16T10:51:00.565Z,1.20
2022-09-16T10:53:30.568Z,1.53
2022-09-16T10:55:58.980Z,1.10
2022-09-16T10:58:28.948Z,1.57
2022-09-16T11:01:04.817Z,1.73
2022-09-16T11:03:40.230Z,1.60
2022-09-16T11:06:15.283Z,1.37
2022-09-16T11:08:49.505Z,1.20
2022-09-16T11:11:20.315Z,1.23
2022-09-16T11:13:52.071Z,1.40
2022-09-16T11:16:34.279Z,1.10
2022-09-16T11:19:04.355Z,0.80
2022-09-16T11:21:38.767Z,1.53
2022-09-16T11:24:19.642Z,1.80
2022-09-16T11:26:53.134Z,1.20
2022-09-16T11:29:34.439Z,1.50
2022-09-16T11:32:07.825Z,1.43
2022-09-16T11:34:43.220Z,1.40
2022-09-16T11:37:15.314Z,1.73
2022-09-16T11:39:50.084Z,1.57
2022-09-16T11:42:21.760Z,1.40
2022-09-16T11:44:53.361Z,1.37
2022-09-16T11:47:28.390Z,1.50
2022-09-16T11:50:04.107Z,1.37
2022-09-16T11:52:40.715Z,1.60
2022-09-16T11:55:16.366Z,1.57
2022-09-16T11:57:45.954Z,2.27
2022-09-16T12:00:22.634Z,1.23
2022-09-16T12:02:54.200Z,1.30
2022-09-16T12:05:30.281Z,1.37
2022-09-16T12:08:05.473Z,1.70
2022-09-16T12:10:34.709Z,1.20
2022-09-16T12:13:09.115Z,1.73
2022-09-16T12:15:37.884Z,1.10
2022-09-16T12:18:10.279Z,1.10
2022-09-16T12:20:44.534Z,1.10
2022-09-16T12:23:16.952Z,1.13
2022-09-16T12:25:46.471Z,1.73
2022-09-16T12:28:16.397Z,1.27
2022-09-16T12:31:24.087Z,1.33
2022-09-16T12:34:38.050Z,1.10
2022-09-16T12:37:08.445Z,1.70
2022-09-16T12:39:37.156Z,1.00
2022-09-16T12:42:16.499Z,1.53
2022-09-16T12:45:01.746Z,1.50
2022-09-16T12:47:43.979Z,1.33
2022-09-16T12:50:26.160Z,1.57
2022-09-16T12:53:11.645Z,1.33
2022-09-16T12:55:54.149Z,1.60
2022-09-16T12:58:36.440Z,1.47
2022-09-16T13:01:11.861Z,1.80
2022-09-16T13:03:40.400Z,1.40
2022-09-16T13:10:02.142Z,2.30
2022-09-16T13:12:43.209Z,2.03
2022-09-16T13:15:22.947Z,1.80
2022-09-16T13:17:51.583Z,2.20
2022-09-16T13:20:20.759Z,1.83
2022-09-16T13:22:49.743Z,1.80
2022-09-16T13:25:22.070Z,1.93
2022-09-16T13:27:56.811Z,1.70
2022-09-16T13:30:28.434Z,1.57
2022-09-16T13:33:01.370Z,1.83
2022-09-16T13:35:39.261Z,2.33
2022-09-16T13:38:22.111Z,2.10
2022-09-16T13:44:41.072Z,1.83
2022-09-16T13:47:15.587Z,2.10
2022-09-16T13:49:45.704Z,2.10
2022-09-16T13:52:16.491Z,2.33
2022-09-16T13:55:08.866Z,2.97
2022-09-16T13:57:43.977Z,1.97
2022-09-16T14:00:15.930Z,2.37
2022-09-16T14:03:01.403Z,1.97
2022-09-16T14:05:38.611Z,2.03
2022-09-16T14:08:09.969Z,2.00
2022-09-16T14:10:58.824Z,2.03
2022-09-16T14:13:42.886Z,1.90
2022-09-16T14:16:14.025Z,1.53
2022-09-16T14:18:42.744Z,2.23
2022-09-16T14:21:18.837Z,1.90
2022-09-16T14:23:46.115Z,1.83
2022-09-16T14:26:14.103Z,1.43
2022-09-16T14:28:41.324Z,1.40
2022-09-16T14:31:10.253Z,1.67
2022-09-16T14:33:40.544Z,1.63
2022-09-16T14:36:10.380Z,2.87
2022-09-16T14:38:46.147Z,2.47
2022-09-16T14:41:18.644Z,2.90
2022-09-16T14:46:27.794Z,2.00
2022-09-16T14:48:55.221Z,2.10
2022-09-16T14:51:24.228Z,1.50
2022-09-16T14:54:11.780Z,1.90
2022-09-16T14:56:39.738Z,1.90
2022-09-16T15:02:29.129Z,1.70
2022-09-16T15:05:06.280Z,2.00
2022-09-16T15:07:35.261Z,1.97
2022-09-16T15:10:06.285Z,2.17
2022-09-16T15:12:35.114Z,1.70
2022-09-16T15:15:04.464Z,1.60
2022-09-16T15:17:31.912Z,2.57
2022-09-16T15:20:00.531Z,2.47
2022-09-16T15:22:28.743Z,1.90
2022-09-16T15:24:57.500Z,1.80
2022-09-16T15:27:27.619Z,2.10
2022-09-16T15:29:57.116Z,2.17
2022-09-16T15:32:24.545Z,2.03
2022-09-16T15:35:02.408Z,2.67
2022-09-16T15:37:30.751Z,2.10
2022-09-16T15:40:08.676Z,2.20
2022-09-16T15:42:37.981Z,1.80
2022-09-16T15:45:14.287Z,1.60
2022-09-16T15:47:49.184Z,1.80
2022-09-16T15:50:17.756Z,2.07
2022-09-16T15:52:51.475Z,1.40
2022-09-16T15:55:27.277Z,2.10
2022-09-16T15:57:58.239Z,2.23
2022-09-16T16:00:25.644Z,1.63
2022-09-16T16:02:54.631Z,2.10
2022-09-16T16:05:22.983Z,1.90
2022-09-16T16:07:51.308Z,1.77
2022-09-16T16:10:19.878Z,1.83
2022-09-16T16:12:47.565Z,2.50
2022-09-16T16:15:17.584Z,1.90
2022-09-16T16:17:47.882Z,2.00
2022-09-16T16:20:15.732Z,2.33
2022-09-16T16:22:43.255Z,2.00
2022-09-16T16:25:10.927Z,2.03
2022-09-16T16:27:38.476Z,1.93
2022-09-16T16:30:06.504Z,2.47
2022-09-16T16:32:35.303Z,3.10
2022-09-16T16:35:02.639Z,2.70
2022-09-16T16:37:46.839Z,3.13
2022-09-16T16:40:15.419Z,2.33
2022-09-16T16:42:42.825Z,2.00
2022-09-16T16:45:10.752Z,3.03
2022-09-16T16:47:39.497Z,2.57
2022-09-16T16:50:06.957Z,2.27
2022-09-16T16:52:34.300Z,2.27
2022-09-16T16:55:01.600Z,2.27
2022-09-16T16:57:28.863Z,2.33
2022-09-16T16:59:56.089Z,2.53
2022-09-16T17:02:23.468Z,2.20
2022-09-16T17:04:52.297Z,2.70
2022-09-16T17:07:27.874Z,1.83
2022-09-16T17:09:55.771Z,2.87
2022-09-16T17:12:23.079Z,2.47
2022-09-16T17:14:50.320Z,2.30
2022-09-16T17:17:17.910Z,2.50
2022-09-16T17:19:45.139Z,2.00
2022-09-16T17:22:13.733Z,3.00
2022-09-16T17:24:41.013Z,2.80
2022-09-16T17:27:08.262Z,2.33
2022-09-16T17:29:35.588Z,2.87
2022-09-16T17:32:03.352Z,2.37
2022-09-16T17:34:30.799Z,2.50
2022-09-16T17:36:58.041Z,1.80
2022-09-16T17:39:27.054Z,2.23
2022-09-16T17:41:54.452Z,1.97
2022-09-16T17:44:21.855Z,1.77
2022-09-16T17:46:49.311Z,2.47
2022-09-16T17:49:17.884Z,2.20
2022-09-16T17:51:45.413Z,2.77
2022-09-16T17:54:12.604Z,2.43
2022-09-16T17:56:41.656Z,2.60
2022-09-16T17:59:09.334Z,2.03
2022-09-16T18:01:36.583Z,2.13
2022-09-16T18:04:04.033Z,2.10
2022-09-16T18:06:32.386Z,2.10
2022-09-16T18:09:00.431Z,2.00
2022-09-16T18:11:27.710Z,2.90
2022-09-16T18:13:58.092Z,2.30
2022-09-16T18:16:26.248Z,2.23
2022-09-16T18:18:54.312Z,2.17
2022-09-16T18:21:22.031Z,1.80
2022-09-16T18:23:49.706Z,2.53
2022-09-16T18:26:17.696Z,2.53
2022-09-16T18:29:08.679Z,2.97
2022-09-16T18:31:34.612Z,3.17
2022-09-16T18:34:01.976Z,2.13
2022-09-16T18:36:29.457Z,2.90
2022-09-16T18:38:57.624Z,2.90
2022-09-16T18:41:25.663Z,2.70
2022-09-16T18:43:53.894Z,2.70
2022-09-16T18:46:26.334Z,3.00
2022-09-16T18:48:56.014Z,2.60
2022-09-16T18:51:24.492Z,3.20
2022-09-16T18:53:52.655Z,2.10
2022-09-16T18:56:21.085Z,3.20
2022-09-16T18:59:09.932Z,3.63
2022-09-16T19:01:37.059Z,2.70
2022-09-16T19:04:07.255Z,3.30
2022-09-16T19:06:35.964Z,2.77
2022-09-16T19:09:04.507Z,3.30
2022-09-16T19:11:31.779Z,3.27
2022-09-16T19:13:59.438Z,3.70
2022-09-16T19:16:26.724Z,2.70
2022-09-16T19:18:59.091Z,2.87
2022-09-16T19:21:27.812Z,2.80
2022-09-16T19:23:56.442Z,2.73
2022-09-16T19:26:23.771Z,2.90
2022-09-16T19:29:10.198Z,2.90
2022-09-16T19:34:42.362Z,3.43
2022-09-16T19:37:11.005Z,2.50
2022-09-16T19:39:38.326Z,2.93
2022-09-16T19:42:05.895Z,2.50
2022-09-16T19:44:33.247Z,2.43
2022-09-16T19:47:00.456Z,2.90
2022-09-16T19:49:32.786Z,3.27
2022-09-16T19:51:59.984Z,2.87
2022-09-16T19:54:28.571Z,3.93
2022-09-16T19:56:55.810Z,2.43
2022-09-16T20:06:09.029Z,2.30
2022-09-16T20:08:36.636Z,2.77
2022-09-16T20:11:06.655Z,2.27
2022-09-16T20:13:34.110Z,2.30
2022-09-16T20:16:01.646Z,1.90
2022-09-16T20:18:29.603Z,2.33
2022-09-16T20:21:03.499Z,2.30
2022-09-16T20:23:30.764Z,1.80
2022-09-16T20:25:58.394Z,2.43
2022-09-16T20:28:29.415Z,2.67
2022-09-16T20:30:56.610Z,2.60
2022-09-16T20:33:23.870Z,2.47
2022-09-16T20:35:51.091Z,2.17
2022-09-16T20:38:18.615Z,2.10
2022-09-16T20:40:45.884Z,1.97
2022-09-16T20:43:13.562Z,2.17
2022-09-16T20:45:42.202Z,1.97
2022-09-16T20:48:09.395Z,1.80
2022-09-16T20:50:37.153Z,2.20
2022-09-16T20:53:04.333Z,1.80
2022-09-16T20:55:31.691Z,1.93
2022-09-16T20:57:58.910Z,1.57
2022-09-16T21:00:26.195Z,2.17
2022-09-16T21:02:54.774Z,2.00
2022-09-16T21:05:22.017Z,2.00
2022-09-16T21:07:49.293Z,2.30
2022-09-16T21:10:16.641Z,2.00
2022-09-16T21:12:43.866Z,1.93
2022-09-16T21:15:11.607Z,1.73
2022-09-16T21:17:38.814Z,1.90
2022-09-16T21:20:07.831Z,2.63
2022-09-16T21:22:35.710Z,1.80
2022-09-16T21:25:03.113Z,2.67
2022-09-16T21:27:31.303Z,2.33
2022-09-16T21:29:58.550Z,2.53
2022-09-16T21:32:25.715Z,1.87
2022-09-16T21:34:52.947Z,2.93
2022-09-16T21:37:21.488Z,1.43
2022-09-16T21:39:48.748Z,2.10
2022-09-16T21:42:16.093Z,2.30
2022-09-16T21:44:43.328Z,2.00
2022-09-16T21:47:10.620Z,2.77
2022-09-16T21:49:37.811Z,3.53
2022-09-16T21:52:05.121Z,1.93
2022-09-16T21:54:33.652Z,2.50
2022-09-16T21:57:00.892Z,2.87
2022-09-16T21:59:28.134Z,2.40
2022-09-16T22:01:57.608Z,1.93
2022-09-16T22:04:28.751Z,2.43
2022-09-16T22:06:55.920Z,2.10
2022-09-16T22:09:23.178Z,2.40
2022-09-16T22:11:51.738Z,1.93
2022-09-16T22:14:18.972Z,2.13
2022-09-16T22:16:46.243Z,3.23
2022-09-16T22:19:15.456Z,2.07
2022-09-16T22:21:43.593Z,2.60
2022-09-16T22:24:11.139Z,2.87
2022-09-16T22:26:39.011Z,2.37
2022-09-16T22:29:07.732Z,2.37
2022-09-16T22:31:36.655Z,3.23
2022-09-16T22:34:04.206Z,2.63
2022-09-16T22:36:32.330Z,2.10
2022-09-16T22:39:00.540Z,2.10
2022-09-16T22:41:28.024Z,2.47
2022-09-16T22:43:55.317Z,2.10
2022-09-16T22:46:25.135Z,2.27
2022-09-16T22:48:52.915Z,2.43
2022-09-16T22:51:20.542Z,2.57
2022-09-16T22:53:48.165Z,2.27
2022-09-16T22:56:16.410Z,1.90
2022-09-16T22:58:43.887Z,2.67
2022-09-16T23:01:12.678Z,2.23
2022-09-16T23:03:59.439Z,1.83
2022-09-16T23:06:43.604Z,1.93
2022-09-16T23:09:11.540Z,2.10
2022-09-16T23:11:38.886Z,2.70
2022-09-16T23:14:11.234Z,2.47
2022-09-16T23:16:38.651Z,2.00
2022-09-16T23:19:10.281Z,2.27
2022-09-16T23:21:37.991Z,1.50
2022-09-16T23:24:08.254Z,2.37
2022-09-16T23:26:38.279Z,2.23
2022-09-16T23:29:06.494Z,1.83
2022-09-16T23:31:34.819Z,1.63
2022-09-16T23:34:02.206Z,1.97
2022-09-16T23:36:29.526Z,1.57
2022-09-16T23:38:56.712Z,2.60
2022-09-16T23:41:26.084Z,2.20
2022-09-16T23:43:53.644Z,1.97
2022-09-16T23:46:22.109Z,1.47
2022-09-16T23:48:49.357Z,2.27
2022-09-16T23:51:16.723Z,2.40
2022-09-16T23:53:43.918Z,2.80
2022-09-16T23:56:12.528Z,2.37
2022-09-16T23:58:41.522Z,2.40
